sensor_id;sensor_type;location;lat;lon;timestamp;temperature;humidity
2465;DHT22;1244;54.326;10.074;2023-03-14T00:00:22;10.30;99.90
2465;DHT22;1244;54.326;10.074;2023-03-14T00:02:52;10.20;99.90
2465;DHT22;1244;54.326;10.074;2023-03-14T00:05:18;10.20;99.90
2465;DHT22;1244;54.326;10.074;2023-03-14T00:07:44;10.20;99.90
2465;DHT22;1244;54.326;10.074;2023-03-14T00:10:12;10.10;99.90
2465;DHT22;1244;54.326;10.074;2023-03-14T00:12:39;10.10;99.90
2465;DHT22;1244;54.326;10.074;2023-03-14T00:15:05;10.00;99.90
2465;DHT22;1244;54.326;10.074;2023-03-14T00:17:32;10.00;99.90
2465;DHT22;1244;54.326;10.074;2023-03-14T00:19:58;10.00;99.90
2465;DHT22;1244;54.326;10.074;2023-03-14T00:22:30;10.00;99.90
2465;DHT22;1244;54.326;10.074;2023-03-14T00:24:55;10.00;99.90
2465;DHT22;1244;54.326;10.074;2023-03-14T00:27:21;10.10;99.90
2465;DHT22;1244;54.326;10.074;2023-03-14T00:29:46;10.10;99.90
2465;DHT22;1244;54.326;10.074;2023-03-14T00:32:12;10.10;99.90
2465;DHT22;1244;54.326;10.074;2023-03-14T00:34:37;10.20;99.90
2465;DHT22;1244;54.326;10.074;2023-03-14T00:37:03;10.20;99.90
2465;DHT22;1244;54.326;10.074;2023-03-14T00:39:29;10.20;99.90
2465;DHT22;1244;54.326;10.074;2023-03-14T00:41:54;10.20;99.90
2465;DHT22;1244;54.326;10.074;2023-03-14T00:44:20;10.10;99.90
2465;DHT22;1244;54.326;10.074;2023-03-14T00:46:45;10.20;99.90
2465;DHT22;1244;54.326;10.074;2023-03-14T00:49:11;10.20;99.90
2465;DHT22;1244;54.326;10.074;2023-03-14T00:51:36;10.10;99.90
2465;DHT22;1244;54.326;10.074;2023-03-14T00:54:02;10.10;99.90
2465;DHT22;1244;54.326;10.074;2023-03-14T00:56:27;10.00;99.90
2465;DHT22;1244;54.326;10.074;2023-03-14T00:58:54;10.00;99.90
2465;DHT22;1244;54.326;10.074;2023-03-14T01:01:21;10.00;99.90
2465;DHT22;1244;54.326;10.074;2023-03-14T01:03:51;10.00;99.90
2465;DHT22;1244;54.326;10.074;2023-03-14T01:06:19;10.00;99.90
2465;DHT22;1244;54.326;10.074;2023-03-14T01:08:45;10.00;99.90
2465;DHT22;1244;54.326;10.074;2023-03-14T01:11:14;10.00;99.90
2465;DHT22;1244;54.326;10.074;2023-03-14T01:13:40;9.90;99.90
2465;DHT22;1244;54.326;10.074;2023-03-14T01:16:08;9.90;99.90
2465;DHT22;1244;54.326;10.074;2023-03-14T01:18:34;9.90;99.90
2465;DHT22;1244;54.326;10.074;2023-03-14T01:21:09;9.90;99.90
2465;DHT22;1244;54.326;10.074;2023-03-14T01:23:34;9.80;99.90
2465;DHT22;1244;54.326;10.074;2023-03-14T01:26:00;9.90;99.90
2465;DHT22;1244;54.326;10.074;2023-03-14T01:28:25;9.90;99.90
2465;DHT22;1244;54.326;10.074;2023-03-14T01:30:51;9.90;99.90
2465;DHT22;1244;54.326;10.074;2023-03-14T01:33:16;9.80;99.90
2465;DHT22;1244;54.326;10.074;2023-03-14T01:35:42;9.80;99.90
2465;DHT22;1244;54.326;10.074;2023-03-14T01:38:07;9.80;99.90
2465;DHT22;1244;54.326;10.074;2023-03-14T01:40:33;9.90;99.90
2465;DHT22;1244;54.326;10.074;2023-03-14T01:43:12;9.90;99.90
2465;DHT22;1244;54.326;10.074;2023-03-14T01:48:35;9.90;99.90
2465;DHT22;1244;54.326;10.074;2023-03-14T01:51:02;10.00;99.90
2465;DHT22;1244;54.326;10.074;2023-03-14T01:53:30;10.00;99.90
2465;DHT22;1244;54.326;10.074;2023-03-14T01:55:57;10.00;99.90
2465;DHT22;1244;54.326;10.074;2023-03-14T01:58:25;10.10;99.90
2465;DHT22;1244;54.326;10.074;2023-03-14T02:00:53;10.00;99.90
2465;DHT22;1244;54.326;10.074;2023-03-14T02:03:20;10.10;99.90
2465;DHT22;1244;54.326;10.074;2023-03-14T02:05:47;10.10;99.90
2465;DHT22;1244;54.326;10.074;2023-03-14T02:08:16;10.10;99.90
2465;DHT22;1244;54.326;10.074;2023-03-14T02:10:45;10.00;99.90
2465;DHT22;1244;54.326;10.074;2023-03-14T02:13:11;10.00;99.90
2465;DHT22;1244;54.326;10.074;2023-03-14T02:15:38;10.00;99.90
2465;DHT22;1244;54.326;10.074;2023-03-14T02:18:04;9.90;99.90
2465;DHT22;1244;54.326;10.074;2023-03-14T02:23:36;9.90;99.90
2465;DHT22;1244;54.326;10.074;2023-03-14T02:26:11;9.90;99.90
2465;DHT22;1244;54.326;10.074;2023-03-14T02:28:37;9.90;99.90
2465;DHT22;1244;54.326;10.074;2023-03-14T02:31:03;9.90;99.90
2465;DHT22;1244;54.326;10.074;2023-03-14T02:33:29;9.90;99.90
2465;DHT22;1244;54.326;10.074;2023-03-14T02:35:59;9.90;99.90
2465;DHT22;1244;54.326;10.074;2023-03-14T02:38:41;9.90;99.90
2465;DHT22;1244;54.326;10.074;2023-03-14T02:41:09;9.90;99.90
2465;DHT22;1244;54.326;10.074;2023-03-14T02:43:35;9.90;99.90
2465;DHT22;1244;54.326;10.074;2023-03-14T02:46:01;9.90;99.90
2465;DHT22;1244;54.326;10.074;2023-03-14T02:48:55;9.90;99.90
2465;DHT22;1244;54.326;10.074;2023-03-14T02:51:22;9.80;99.90
2465;DHT22;1244;54.326;10.074;2023-03-14T02:53:48;9.80;99.90
2465;DHT22;1244;54.326;10.074;2023-03-14T02:56:14;9.80;99.90
2465;DHT22;1244;54.326;10.074;2023-03-14T02:58:40;9.90;99.90
2465;DHT22;1244;54.326;10.074;2023-03-14T03:01:05;9.90;99.90
2465;DHT22;1244;54.326;10.074;2023-03-14T03:03:31;9.90;99.90
2465;DHT22;1244;54.326;10.074;2023-03-14T03:05:57;9.90;99.90
2465;DHT22;1244;54.326;10.074;2023-03-14T03:08:25;9.90;99.90
2465;DHT22;1244;54.326;10.074;2023-03-14T03:10:51;9.90;99.90
2465;DHT22;1244;54.326;10.074;2023-03-14T03:13:17;9.90;99.90
2465;DHT22;1244;54.326;10.074;2023-03-14T03:15:43;9.80;99.90
2465;DHT22;1244;54.326;10.074;2023-03-14T03:18:09;10.00;99.90
2465;DHT22;1244;54.326;10.074;2023-03-14T03:20:34;9.90;99.90
2465;DHT22;1244;54.326;10.074;2023-03-14T03:23:00;10.00;99.90
2465;DHT22;1244;54.326;10.074;2023-03-14T03:25:26;9.90;99.90
2465;DHT22;1244;54.326;10.074;2023-03-14T03:27:52;9.90;99.90
2465;DHT22;1244;54.326;10.074;2023-03-14T03:30:18;10.00;99.90
2465;DHT22;1244;54.326;10.074;2023-03-14T03:32:44;10.00;99.90
2465;DHT22;1244;54.326;10.074;2023-03-14T03:35:10;10.00;99.90
2465;DHT22;1244;54.326;10.074;2023-03-14T03:37:35;10.00;99.90
2465;DHT22;1244;54.326;10.074;2023-03-14T03:40:01;10.00;99.90
2465;DHT22;1244;54.326;10.074;2023-03-14T03:42:29;9.90;99.90
2465;DHT22;1244;54.326;10.074;2023-03-14T03:44:55;10.00;99.90
2465;DHT22;1244;54.326;10.074;2023-03-14T03:47:20;10.10;99.90
2465;DHT22;1244;54.326;10.074;2023-03-14T03:49:46;10.10;99.90
2465;DHT22;1244;54.326;10.074;2023-03-14T03:52:11;10.10;99.90
2465;DHT22;1244;54.326;10.074;2023-03-14T03:54:37;10.10;99.90
2465;DHT22;1244;54.326;10.074;2023-03-14T03:57:02;10.10;99.90
2465;DHT22;1244;54.326;10.074;2023-03-14T03:59:28;10.00;99.90
2465;DHT22;1244;54.326;10.074;2023-03-14T04:01:53;10.00;99.90
2465;DHT22;1244;54.326;10.074;2023-03-14T04:04:19;10.10;99.90
2465;DHT22;1244;54.326;10.074;2023-03-14T04:06:44;10.00;99.90
2465;DHT22;1244;54.326;10.074;2023-03-14T04:09:11;10.10;99.90
2465;DHT22;1244;54.326;10.074;2023-03-14T04:11:36;10.10;99.90
2465;DHT22;1244;54.326;10.074;2023-03-14T04:14:03;10.00;99.90
2465;DHT22;1244;54.326;10.074;2023-03-14T04:16:29;9.90;99.90
2465;DHT22;1244;54.326;10.074;2023-03-14T04:18:56;9.80;99.90
2465;DHT22;1244;54.326;10.074;2023-03-14T04:21:22;9.70;99.90
2465;DHT22;1244;54.326;10.074;2023-03-14T04:23:47;9.50;99.90
2465;DHT22;1244;54.326;10.074;2023-03-14T04:26:14;9.50;99.90
2465;DHT22;1244;54.326;10.074;2023-03-14T04:28:39;9.40;99.90
2465;DHT22;1244;54.326;10.074;2023-03-14T04:31:10;9.30;99.90
2465;DHT22;1244;54.326;10.074;2023-03-14T04:33:36;9.20;99.90
2465;DHT22;1244;54.326;10.074;2023-03-14T04:36:03;9.00;99.90
2465;DHT22;1244;54.326;10.074;2023-03-14T04:38:29;9.00;99.90
2465;DHT22;1244;54.326;10.074;2023-03-14T04:40:55;9.00;99.90
2465;DHT22;1244;54.326;10.074;2023-03-14T04:43:20;9.10;99.90
2465;DHT22;1244;54.326;10.074;2023-03-14T04:45:46;8.70;99.90
2465;DHT22;1244;54.326;10.074;2023-03-14T04:48:11;8.90;99.90
2465;DHT22;1244;54.326;10.074;2023-03-14T04:50:38;8.90;99.90
2465;DHT22;1244;54.326;10.074;2023-03-14T04:53:04;8.80;99.90
2465;DHT22;1244;54.326;10.074;2023-03-14T04:55:29;8.90;99.90
2465;DHT22;1244;54.326;10.074;2023-03-14T04:57:57;8.80;99.90
2465;DHT22;1244;54.326;10.074;2023-03-14T05:00:22;8.80;99.90
2465;DHT22;1244;54.326;10.074;2023-03-14T05:02:48;8.70;99.90
2465;DHT22;1244;54.326;10.074;2023-03-14T05:05:13;8.80;99.90
2465;DHT22;1244;54.326;10.074;2023-03-14T05:07:39;8.80;99.90
2465;DHT22;1244;54.326;10.074;2023-03-14T05:10:05;8.70;99.90
2465;DHT22;1244;54.326;10.074;2023-03-14T05:12:30;8.60;99.90
2465;DHT22;1244;54.326;10.074;2023-03-14T05:14:56;8.60;99.90
2465;DHT22;1244;54.326;10.074;2023-03-14T05:17:21;8.60;99.90
2465;DHT22;1244;54.326;10.074;2023-03-14T05:19:47;8.60;99.90
2465;DHT22;1244;54.326;10.074;2023-03-14T05:22:13;8.60;99.90
2465;DHT22;1244;54.326;10.074;2023-03-14T05:24:39;8.60;99.90
2465;DHT22;1244;54.326;10.074;2023-03-14T05:27:04;8.60;99.90
2465;DHT22;1244;54.326;10.074;2023-03-14T05:29:30;8.50;99.90
2465;DHT22;1244;54.326;10.074;2023-03-14T05:31:55;8.50;99.90
2465;DHT22;1244;54.326;10.074;2023-03-14T05:34:21;8.40;99.90
2465;DHT22;1244;54.326;10.074;2023-03-14T05:36:46;8.40;99.90
2465;DHT22;1244;54.326;10.074;2023-03-14T05:39:12;8.40;99.90
2465;DHT22;1244;54.326;10.074;2023-03-14T05:41:38;8.40;99.90
2465;DHT22;1244;54.326;10.074;2023-03-14T05:44:03;8.40;99.90
2465;DHT22;1244;54.326;10.074;2023-03-14T05:46:29;8.30;99.90
2465;DHT22;1244;54.326;10.074;2023-03-14T05:48:56;8.30;99.90
2465;DHT22;1244;54.326;10.074;2023-03-14T05:51:22;8.20;99.90
2465;DHT22;1244;54.326;10.074;2023-03-14T05:53:48;8.20;99.90
2465;DHT22;1244;54.326;10.074;2023-03-14T05:56:13;8.20;99.90
2465;DHT22;1244;54.326;10.074;2023-03-14T05:58:39;8.20;99.90
2465;DHT22;1244;54.326;10.074;2023-03-14T06:01:05;8.20;99.90
2465;DHT22;1244;54.326;10.074;2023-03-14T06:03:31;8.20;99.90
2465;DHT22;1244;54.326;10.074;2023-03-14T06:05:57;8.20;99.90
2465;DHT22;1244;54.326;10.074;2023-03-14T06:08:22;8.20;99.90
2465;DHT22;1244;54.326;10.074;2023-03-14T06:10:48;8.20;99.90
2465;DHT22;1244;54.326;10.074;2023-03-14T06:13:14;8.20;99.90
2465;DHT22;1244;54.326;10.074;2023-03-14T06:15:41;8.20;99.90
2465;DHT22;1244;54.326;10.074;2023-03-14T06:18:07;8.20;99.90
2465;DHT22;1244;54.326;10.074;2023-03-14T06:20:32;8.30;99.90
2465;DHT22;1244;54.326;10.074;2023-03-14T06:23:00;8.30;99.90
2465;DHT22;1244;54.326;10.074;2023-03-14T06:25:26;8.30;99.90
2465;DHT22;1244;54.326;10.074;2023-03-14T06:27:51;8.40;99.90
2465;DHT22;1244;54.326;10.074;2023-03-14T06:30:17;8.40;99.90
2465;DHT22;1244;54.326;10.074;2023-03-14T06:32:43;8.40;99.90
2465;DHT22;1244;54.326;10.074;2023-03-14T06:35:08;8.50;99.90
2465;DHT22;1244;54.326;10.074;2023-03-14T06:37:34;8.50;99.90
2465;DHT22;1244;54.326;10.074;2023-03-14T06:40:00;8.60;99.90
2465;DHT22;1244;54.326;10.074;2023-03-14T06:42:25;8.60;99.90
2465;DHT22;1244;54.326;10.074;2023-03-14T06:44:51;8.60;99.90
2465;DHT22;1244;54.326;10.074;2023-03-14T06:47:16;8.60;99.90
2465;DHT22;1244;54.326;10.074;2023-03-14T06:49:42;8.60;99.90
2465;DHT22;1244;54.326;10.074;2023-03-14T06:52:07;8.50;99.90
2465;DHT22;1244;54.326;10.074;2023-03-14T06:54:33;8.60;99.90
2465;DHT22;1244;54.326;10.074;2023-03-14T06:56:59;8.70;99.90
2465;DHT22;1244;54.326;10.074;2023-03-14T06:59:24;8.80;99.90
2465;DHT22;1244;54.326;10.074;2023-03-14T07:01:50;8.80;99.90
2465;DHT22;1244;54.326;10.074;2023-03-14T07:04:16;8.80;99.90
2465;DHT22;1244;54.326;10.074;2023-03-14T07:06:42;8.80;99.90
2465;DHT22;1244;54.326;10.074;2023-03-14T07:09:10;8.80;99.90
2465;DHT22;1244;54.326;10.074;2023-03-14T07:11:36;8.90;99.90
2465;DHT22;1244;54.326;10.074;2023-03-14T07:14:02;8.90;99.90
2465;DHT22;1244;54.326;10.074;2023-03-14T07:16:28;8.80;99.90
2465;DHT22;1244;54.326;10.074;2023-03-14T07:18:57;8.90;99.90
2465;DHT22;1244;54.326;10.074;2023-03-14T07:21:22;8.90;99.90
2465;DHT22;1244;54.326;10.074;2023-03-14T07:23:48;8.80;99.90
2465;DHT22;1244;54.326;10.074;2023-03-14T07:26:13;8.90;99.90
2465;DHT22;1244;54.326;10.074;2023-03-14T07:28:39;8.90;99.90
2465;DHT22;1244;54.326;10.074;2023-03-14T07:31:05;8.90;99.90
2465;DHT22;1244;54.326;10.074;2023-03-14T07:33:31;8.90;99.90
2465;DHT22;1244;54.326;10.074;2023-03-14T07:35:59;8.90;99.90
2465;DHT22;1244;54.326;10.074;2023-03-14T07:38:24;8.90;99.90
2465;DHT22;1244;54.326;10.074;2023-03-14T07:40:50;8.80;99.90
2465;DHT22;1244;54.326;10.074;2023-03-14T07:43:16;8.90;99.90
2465;DHT22;1244;54.326;10.074;2023-03-14T07:45:44;8.90;99.90
2465;DHT22;1244;54.326;10.074;2023-03-14T07:48:10;8.80;99.90
2465;DHT22;1244;54.326;10.074;2023-03-14T07:50:35;8.90;99.90
2465;DHT22;1244;54.326;10.074;2023-03-14T07:53:01;8.90;99.90
2465;DHT22;1244;54.326;10.074;2023-03-14T07:55:26;8.80;99.90
2465;DHT22;1244;54.326;10.074;2023-03-14T07:57:52;8.90;99.90
2465;DHT22;1244;54.326;10.074;2023-03-14T08:00:18;8.90;99.90
2465;DHT22;1244;54.326;10.074;2023-03-14T08:02:43;8.90;99.90
2465;DHT22;1244;54.326;10.074;2023-03-14T08:05:09;9.00;99.90
2465;DHT22;1244;54.326;10.074;2023-03-14T08:07:35;9.00;99.90
2465;DHT22;1244;54.326;10.074;2023-03-14T08:10:01;9.00;99.90
2465;DHT22;1244;54.326;10.074;2023-03-14T08:12:27;9.00;99.90
2465;DHT22;1244;54.326;10.074;2023-03-14T08:14:52;9.00;99.90
2465;DHT22;1244;54.326;10.074;2023-03-14T08:17:18;8.90;99.90
2465;DHT22;1244;54.326;10.074;2023-03-14T08:19:44;8.90;99.90
2465;DHT22;1244;54.326;10.074;2023-03-14T08:22:09;8.90;99.90
2465;DHT22;1244;54.326;10.074;2023-03-14T08:24:35;8.80;99.90
2465;DHT22;1244;54.326;10.074;2023-03-14T08:27:00;8.70;99.90
2465;DHT22;1244;54.326;10.074;2023-03-14T08:29:26;8.70;99.90
2465;DHT22;1244;54.326;10.074;2023-03-14T08:31:51;8.70;99.90
2465;DHT22;1244;54.326;10.074;2023-03-14T08:34:17;8.70;99.90
2465;DHT22;1244;54.326;10.074;2023-03-14T08:36:43;8.70;99.90
2465;DHT22;1244;54.326;10.074;2023-03-14T08:39:08;8.70;99.90
2465;DHT22;1244;54.326;10.074;2023-03-14T08:41:34;8.70;99.90
2465;DHT22;1244;54.326;10.074;2023-03-14T08:44:09;8.70;99.90
2465;DHT22;1244;54.326;10.074;2023-03-14T08:46:36;8.70;99.90
2465;DHT22;1244;54.326;10.074;2023-03-14T08:49:02;8.60;99.90
2465;DHT22;1244;54.326;10.074;2023-03-14T08:51:28;8.60;99.90
2465;DHT22;1244;54.326;10.074;2023-03-14T08:53:54;8.40;99.90
2465;DHT22;1244;54.326;10.074;2023-03-14T08:56:19;7.80;99.90
2465;DHT22;1244;54.326;10.074;2023-03-14T08:58:44;7.40;99.90
2465;DHT22;1244;54.326;10.074;2023-03-14T09:01:10;7.10;99.90
2465;DHT22;1244;54.326;10.074;2023-03-14T09:03:36;7.00;99.90
2465;DHT22;1244;54.326;10.074;2023-03-14T09:06:08;6.90;99.90
2465;DHT22;1244;54.326;10.074;2023-03-14T09:08:34;6.80;99.90
2465;DHT22;1244;54.326;10.074;2023-03-14T09:11:00;6.60;99.90
2465;DHT22;1244;54.326;10.074;2023-03-14T09:13:26;6.50;99.90
2465;DHT22;1244;54.326;10.074;2023-03-14T09:15:55;6.40;99.90
2465;DHT22;1244;54.326;10.074;2023-03-14T09:18:21;6.30;99.90
2465;DHT22;1244;54.326;10.074;2023-03-14T09:20:48;6.00;99.90
2465;DHT22;1244;54.326;10.074;2023-03-14T09:23:13;5.80;99.90
2465;DHT22;1244;54.326;10.074;2023-03-14T09:25:39;5.60;99.90
2465;DHT22;1244;54.326;10.074;2023-03-14T09:28:04;5.40;99.90
2465;DHT22;1244;54.326;10.074;2023-03-14T09:30:30;5.10;99.90
2465;DHT22;1244;54.326;10.074;2023-03-14T09:32:55;5.00;99.90
2465;DHT22;1244;54.326;10.074;2023-03-14T09:35:22;4.80;99.90
2465;DHT22;1244;54.326;10.074;2023-03-14T09:37:47;4.80;99.90
2465;DHT22;1244;54.326;10.074;2023-03-14T09:40:16;4.60;99.90
2465;DHT22;1244;54.326;10.074;2023-03-14T09:42:42;4.70;99.90
2465;DHT22;1244;54.326;10.074;2023-03-14T09:45:14;4.60;99.90
2465;DHT22;1244;54.326;10.074;2023-03-14T09:47:43;4.60;99.90
2465;DHT22;1244;54.326;10.074;2023-03-14T09:50:13;4.60;99.90
2465;DHT22;1244;54.326;10.074;2023-03-14T09:52:42;4.40;99.90
2465;DHT22;1244;54.326;10.074;2023-03-14T09:55:19;4.50;99.90
2465;DHT22;1244;54.326;10.074;2023-03-14T09:57:47;4.60;99.90
2465;DHT22;1244;54.326;10.074;2023-03-14T10:00:15;4.70;99.90
2465;DHT22;1244;54.326;10.074;2023-03-14T10:05:40;4.60;99.90
2465;DHT22;1244;54.326;10.074;2023-03-14T10:08:08;4.70;99.90
2465;DHT22;1244;54.326;10.074;2023-03-14T10:10:35;4.70;99.90
2465;DHT22;1244;54.326;10.074;2023-03-14T10:15:41;4.80;99.90
2465;DHT22;1244;54.326;10.074;2023-03-14T10:18:12;4.90;99.90
2465;DHT22;1244;54.326;10.074;2023-03-14T10:20:45;5.20;99.90
2465;DHT22;1244;54.326;10.074;2023-03-14T10:25:41;5.20;99.90
2465;DHT22;1244;54.326;10.074;2023-03-14T10:30:49;5.50;99.90
2465;DHT22;1244;54.326;10.074;2023-03-14T10:35:43;5.70;99.90
2465;DHT22;1244;54.326;10.074;2023-03-14T10:38:14;5.80;99.90
2465;DHT22;1244;54.326;10.074;2023-03-14T10:40:41;5.90;99.90
2465;DHT22;1244;54.326;10.074;2023-03-14T10:43:18;6.20;99.90
2465;DHT22;1244;54.326;10.074;2023-03-14T10:45:53;6.50;99.90
2465;DHT22;1244;54.326;10.074;2023-03-14T10:48:34;6.50;99.90
2465;DHT22;1244;54.326;10.074;2023-03-14T10:51:05;6.10;99.90
2465;DHT22;1244;54.326;10.074;2023-03-14T10:53:58;6.10;99.90
2465;DHT22;1244;54.326;10.074;2023-03-14T10:56:26;6.00;99.90
2465;DHT22;1244;54.326;10.074;2023-03-14T10:58:57;6.10;99.90
2465;DHT22;1244;54.326;10.074;2023-03-14T11:01:39;6.10;99.90
2465;DHT22;1244;54.326;10.074;2023-03-14T11:06:49;6.50;99.90
2465;DHT22;1244;54.326;10.074;2023-03-14T11:15:05;6.40;99.90
2465;DHT22;1244;54.326;10.074;2023-03-14T11:17:41;6.20;99.90
2465;DHT22;1244;54.326;10.074;2023-03-14T11:20:16;6.60;99.90
2465;DHT22;1244;54.326;10.074;2023-03-14T11:28:44;7.30;99.90
2465;DHT22;1244;54.326;10.074;2023-03-14T11:31:16;6.80;99.90
2465;DHT22;1244;54.326;10.074;2023-03-14T11:34:10;6.60;99.90
2465;DHT22;1244;54.326;10.074;2023-03-14T11:39:56;6.50;99.90
2465;DHT22;1244;54.326;10.074;2023-03-14T11:42:24;6.50;99.90
2465;DHT22;1244;54.326;10.074;2023-03-14T11:44:52;6.20;99.90
2465;DHT22;1244;54.326;10.074;2023-03-14T11:47:26;6.50;99.90
2465;DHT22;1244;54.326;10.074;2023-03-14T11:52:44;6.70;99.90
2465;DHT22;1244;54.326;10.074;2023-03-14T11:55:31;6.80;99.90
2465;DHT22;1244;54.326;10.074;2023-03-14T11:58:01;6.60;99.90
2465;DHT22;1244;54.326;10.074;2023-03-14T12:00:28;6.50;99.90
2465;DHT22;1244;54.326;10.074;2023-03-14T12:05:39;6.10;99.90
2465;DHT22;1244;54.326;10.074;2023-03-14T12:13:17;6.40;99.90
2465;DHT22;1244;54.326;10.074;2023-03-14T12:15:58;6.70;99.90
2465;DHT22;1244;54.326;10.074;2023-03-14T12:18:29;6.70;99.90
2465;DHT22;1244;54.326;10.074;2023-03-14T12:21:01;6.70;99.90
2465;DHT22;1244;54.326;10.074;2023-03-14T12:23:35;6.60;99.90
2465;DHT22;1244;54.326;10.074;2023-03-14T12:28:36;6.30;99.90
2465;DHT22;1244;54.326;10.074;2023-03-14T12:39:47;6.70;99.90
2465;DHT22;1244;54.326;10.074;2023-03-14T12:45:15;6.80;99.90
2465;DHT22;1244;54.326;10.074;2023-03-14T13:01:59;7.10;99.90
2465;DHT22;1244;54.326;10.074;2023-03-14T13:07:01;7.20;99.90
2465;DHT22;1244;54.326;10.074;2023-03-14T13:12:13;7.40;99.90
2465;DHT22;1244;54.326;10.074;2023-03-14T13:14:50;7.40;99.90
2465;DHT22;1244;54.326;10.074;2023-03-14T13:17:30;7.50;99.90
2465;DHT22;1244;54.326;10.074;2023-03-14T13:19:59;7.50;99.90
2465;DHT22;1244;54.326;10.074;2023-03-14T13:22:28;7.50;99.90
2465;DHT22;1244;54.326;10.074;2023-03-14T13:25:03;7.90;99.90
2465;DHT22;1244;54.326;10.074;2023-03-14T13:27:31;8.30;99.90
2465;DHT22;1244;54.326;10.074;2023-03-14T13:29:57;9.00;99.90
2465;DHT22;1244;54.326;10.074;2023-03-14T13:32:27;9.30;99.90
2465;DHT22;1244;54.326;10.074;2023-03-14T13:34:57;8.70;99.90
2465;DHT22;1244;54.326;10.074;2023-03-14T13:37:24;8.90;99.90
2465;DHT22;1244;54.326;10.074;2023-03-14T13:39:51;9.10;99.90
2465;DHT22;1244;54.326;10.074;2023-03-14T13:42:18;9.70;99.90
2465;DHT22;1244;54.326;10.074;2023-03-14T13:44:44;10.30;99.90
2465;DHT22;1244;54.326;10.074;2023-03-14T13:47:15;9.60;99.90
2465;DHT22;1244;54.326;10.074;2023-03-14T13:49:41;9.60;99.90
2465;DHT22;1244;54.326;10.074;2023-03-14T13:52:29;8.90;99.90
2465;DHT22;1244;54.326;10.074;2023-03-14T13:54:57;9.90;99.90
2465;DHT22;1244;54.326;10.074;2023-03-14T13:57:24;9.80;99.90
2465;DHT22;1244;54.326;10.074;2023-03-14T14:00:00;9.10;99.90
2465;DHT22;1244;54.326;10.074;2023-03-14T14:02:36;8.50;99.90
2465;DHT22;1244;54.326;10.074;2023-03-14T14:05:05;7.90;99.90
2465;DHT22;1244;54.326;10.074;2023-03-14T14:07:33;7.50;99.90
2465;DHT22;1244;54.326;10.074;2023-03-14T14:10:04;7.80;99.90
2465;DHT22;1244;54.326;10.074;2023-03-14T14:12:34;8.40;99.90
2465;DHT22;1244;54.326;10.074;2023-03-14T14:15:12;8.70;99.90
2465;DHT22;1244;54.326;10.074;2023-03-14T14:17:42;8.50;99.90
2465;DHT22;1244;54.326;10.074;2023-03-14T14:20:26;8.20;99.90
2465;DHT22;1244;54.326;10.074;2023-03-14T14:22:58;7.80;99.90
2465;DHT22;1244;54.326;10.074;2023-03-14T14:25:24;7.60;99.90
2465;DHT22;1244;54.326;10.074;2023-03-14T14:27:50;9.10;99.90
2465;DHT22;1244;54.326;10.074;2023-03-14T14:32:46;10.10;99.90
2465;DHT22;1244;54.326;10.074;2023-03-14T14:35:32;9.10;99.90
2465;DHT22;1244;54.326;10.074;2023-03-14T14:37:58;8.20;99.90
2465;DHT22;1244;54.326;10.074;2023-03-14T14:40:27;7.80;99.90
2465;DHT22;1244;54.326;10.074;2023-03-14T14:43:03;7.20;99.90
2465;DHT22;1244;54.326;10.074;2023-03-14T14:45:30;6.80;99.90
2465;DHT22;1244;54.326;10.074;2023-03-14T14:48:04;6.70;99.90
2465;DHT22;1244;54.326;10.074;2023-03-14T14:50:37;6.80;99.90
2465;DHT22;1244;54.326;10.074;2023-03-14T14:53:26;6.70;99.90
2465;DHT22;1244;54.326;10.074;2023-03-14T14:55:54;6.60;99.90
2465;DHT22;1244;54.326;10.074;2023-03-14T14:58:39;6.40;99.90
2465;DHT22;1244;54.326;10.074;2023-03-14T15:01:15;6.80;99.90
2465;DHT22;1244;54.326;10.074;2023-03-14T15:03:43;6.70;99.90
2465;DHT22;1244;54.326;10.074;2023-03-14T15:06:14;6.50;99.90
2465;DHT22;1244;54.326;10.074;2023-03-14T15:08:40;6.50;99.90
2465;DHT22;1244;54.326;10.074;2023-03-14T15:11:18;6.60;99.90
2465;DHT22;1244;54.326;10.074;2023-03-14T15:13:44;6.70;99.90
2465;DHT22;1244;54.326;10.074;2023-03-14T15:16:15;6.80;99.90
2465;DHT22;1244;54.326;10.074;2023-03-14T15:18:42;7.00;99.90
2465;DHT22;1244;54.326;10.074;2023-03-14T15:21:10;6.90;99.90
2465;DHT22;1244;54.326;10.074;2023-03-14T15:23:35;6.90;99.90
2465;DHT22;1244;54.326;10.074;2023-03-14T15:26:01;7.00;99.90
2465;DHT22;1244;54.326;10.074;2023-03-14T15:28:28;6.90;99.90
2465;DHT22;1244;54.326;10.074;2023-03-14T15:30:56;6.80;99.90
2465;DHT22;1244;54.326;10.074;2023-03-14T15:33:22;6.90;99.90
2465;DHT22;1244;54.326;10.074;2023-03-14T15:35:48;6.70;99.90
2465;DHT22;1244;54.326;10.074;2023-03-14T15:38:18;6.60;99.90
2465;DHT22;1244;54.326;10.074;2023-03-14T15:40:49;6.40;99.90
2465;DHT22;1244;54.326;10.074;2023-03-14T15:43:15;6.40;99.90
2465;DHT22;1244;54.326;10.074;2023-03-14T15:45:40;6.30;99.90
2465;DHT22;1244;54.326;10.074;2023-03-14T15:48:11;6.10;99.90
2465;DHT22;1244;54.326;10.074;2023-03-14T15:50:37;6.20;99.90
2465;DHT22;1244;54.326;10.074;2023-03-14T15:53:03;6.50;99.90
2465;DHT22;1244;54.326;10.074;2023-03-14T15:55:28;6.30;99.90
2465;DHT22;1244;54.326;10.074;2023-03-14T15:57:54;6.30;99.90
2465;DHT22;1244;54.326;10.074;2023-03-14T16:00:20;6.20;99.90
2465;DHT22;1244;54.326;10.074;2023-03-14T16:02:49;6.20;99.90
2465;DHT22;1244;54.326;10.074;2023-03-14T16:05:15;6.20;99.90
2465;DHT22;1244;54.326;10.074;2023-03-14T16:07:41;6.20;99.90
2465;DHT22;1244;54.326;10.074;2023-03-14T16:10:08;6.00;99.90
2465;DHT22;1244;54.326;10.074;2023-03-14T16:12:34;6.00;99.90
2465;DHT22;1244;54.326;10.074;2023-03-14T16:15:00;5.90;99.90
2465;DHT22;1244;54.326;10.074;2023-03-14T16:17:25;5.90;99.90
2465;DHT22;1244;54.326;10.074;2023-03-14T16:19:51;5.80;99.90
2465;DHT22;1244;54.326;10.074;2023-03-14T16:22:16;5.60;99.90
2465;DHT22;1244;54.326;10.074;2023-03-14T16:24:42;5.50;99.90
2465;DHT22;1244;54.326;10.074;2023-03-14T16:27:07;5.50;99.90
2465;DHT22;1244;54.326;10.074;2023-03-14T16:29:33;5.40;99.90
2465;DHT22;1244;54.326;10.074;2023-03-14T16:31:59;5.40;99.90
2465;DHT22;1244;54.326;10.074;2023-03-14T16:34:24;5.30;99.90
2465;DHT22;1244;54.326;10.074;2023-03-14T16:36:50;5.10;99.90
2465;DHT22;1244;54.326;10.074;2023-03-14T16:39:17;5.10;99.90
2465;DHT22;1244;54.326;10.074;2023-03-14T16:41:44;5.00;99.90
2465;DHT22;1244;54.326;10.074;2023-03-14T16:44:09;5.00;99.90
2465;DHT22;1244;54.326;10.074;2023-03-14T16:46:35;5.00;99.90
2465;DHT22;1244;54.326;10.074;2023-03-14T16:49:01;4.90;99.90
2465;DHT22;1244;54.326;10.074;2023-03-14T16:51:27;4.90;99.90
2465;DHT22;1244;54.326;10.074;2023-03-14T16:53:52;4.90;99.90
2465;DHT22;1244;54.326;10.074;2023-03-14T16:56:18;4.80;99.90
2465;DHT22;1244;54.326;10.074;2023-03-14T16:58:44;4.70;99.90
2465;DHT22;1244;54.326;10.074;2023-03-14T17:01:12;4.70;99.90
2465;DHT22;1244;54.326;10.074;2023-03-14T17:03:39;4.60;99.90
2465;DHT22;1244;54.326;10.074;2023-03-14T17:06:05;4.50;99.90
2465;DHT22;1244;54.326;10.074;2023-03-14T17:08:31;4.60;99.90
2465;DHT22;1244;54.326;10.074;2023-03-14T17:10:57;4.60;99.90
2465;DHT22;1244;54.326;10.074;2023-03-14T17:13:23;4.60;99.90
2465;DHT22;1244;54.326;10.074;2023-03-14T17:15:57;4.50;99.90
2465;DHT22;1244;54.326;10.074;2023-03-14T17:18:24;4.50;99.90
2465;DHT22;1244;54.326;10.074;2023-03-14T17:20:51;4.40;99.90
2465;DHT22;1244;54.326;10.074;2023-03-14T17:23:17;4.40;99.90
2465;DHT22;1244;54.326;10.074;2023-03-14T17:25:45;4.40;99.90